Terminal Aerodrome Forecast
Issued by NWS

Home | Current Version | Previous Version | Text Only | Print | Product List | Glossary On
Versions: 1 2 3 4 5 6 7 8 9 10 11 12 13 14 15 16 17 18 19 20 21 22 23 24 25 26 27 28 29
585
FTUS43 KILX 301846 AAA
TAFBMI
TAF AMD
KBMI 301846Z 3019/0118 03013KT 3SM -RA BR VCSH OVC002
      TEMPO 3019/3020 1 1/2SM SHRA BR OVC004
     FM302000 15015G23KT 4SM SHRA BR VCTS OVC006CB
      TEMPO 3020/3024 2SM TSRA BR BKN010CB OVC020
     FM010000 16018G27KT 4SM SHRA BR VCTS OVC010CB
     FM010400 22013G22KT P6SM BKN025
     FM011300 22019G28KT P6SM OVC013=

USA.gov is the U.S. government's official web portal to all federal, state and local government web resources and services.